sensor_id;sensor_type;location;lat;lon;timestamp;P1;durP1;ratioP1;P2;durP2;ratioP2
65998;SDS011;52766;56.008;37.440;2022-09-13T00:00:59;7.38;;;4.25;;
65998;SDS011;52766;56.008;37.440;2022-09-13T00:03:25;6.70;;;4.03;;
65998;SDS011;52766;56.008;37.440;2022-09-13T00:05:54;9.98;;;5.03;;
65998;SDS011;52766;56.008;37.440;2022-09-13T00:08:21;7.90;;;4.22;;
65998;SDS011;52766;56.008;37.440;2022-09-13T00:10:49;9.77;;;4.90;;
65998;SDS011;52766;56.008;37.440;2022-09-13T00:13:15;7.70;;;4.95;;
65998;SDS011;52766;56.008;37.440;2022-09-13T00:15:43;7.93;;;4.47;;
65998;SDS011;52766;56.008;37.440;2022-09-13T00:18:13;7.47;;;4.40;;
65998;SDS011;52766;56.008;37.440;2022-09-13T00:20:39;9.25;;;4.57;;
65998;SDS011;52766;56.008;37.440;2022-09-13T00:23:05;8.23;;;4.68;;
65998;SDS011;52766;56.008;37.440;2022-09-13T00:25:32;8.07;;;4.03;;
65998;SDS011;52766;56.008;37.440;2022-09-13T00:27:57;7.35;;;4.03;;
65998;SDS011;52766;56.008;37.440;2022-09-13T00:30:24;8.90;;;4.47;;
65998;SDS011;52766;56.008;37.440;2022-09-13T00:32:49;7.35;;;4.25;;
65998;SDS011;52766;56.008;37.440;2022-09-13T00:35:15;7.13;;;4.63;;
65998;SDS011;52766;56.008;37.440;2022-09-13T00:37:41;8.80;;;5.35;;
65998;SDS011;52766;56.008;37.440;2022-09-13T00:40:07;9.10;;;5.40;;
65998;SDS011;52766;56.008;37.440;2022-09-13T00:42:34;7.43;;;4.22;;
65998;SDS011;52766;56.008;37.440;2022-09-13T00:50:38;9.50;;;4.68;;
65998;SDS011;52766;56.008;37.440;2022-09-13T00:53:19;7.15;;;4.47;;
65998;SDS011;52766;56.008;37.440;2022-09-13T00:55:54;7.25;;;4.57;;
65998;SDS011;52766;56.008;37.440;2022-09-13T00:58:34;8.18;;;4.03;;
65998;SDS011;52766;56.008;37.440;2022-09-13T01:01:04;7.78;;;4.60;;
65998;SDS011;52766;56.008;37.440;2022-09-13T01:03:32;9.25;;;4.43;;
65998;SDS011;52766;56.008;37.440;2022-09-13T01:06:01;9.43;;;4.97;;
65998;SDS011;52766;56.008;37.440;2022-09-13T01:08:32;8.50;;;4.75;;
65998;SDS011;52766;56.008;37.440;2022-09-13T01:11:01;9.05;;;5.03;;
65998;SDS011;52766;56.008;37.440;2022-09-13T01:13:29;7.80;;;4.80;;
65998;SDS011;52766;56.008;37.440;2022-09-13T01:15:57;9.65;;;4.35;;
65998;SDS011;52766;56.008;37.440;2022-09-13T01:18:23;9.73;;;5.05;;
65998;SDS011;52766;56.008;37.440;2022-09-13T01:32:57;8.43;;;4.68;;
65998;SDS011;52766;56.008;37.440;2022-09-13T01:48:10;9.45;;;4.88;;
65998;SDS011;52766;56.008;37.440;2022-09-13T01:52:37;10.45;;;5.38;;
65998;SDS011;52766;56.008;37.440;2022-09-13T01:58:06;9.18;;;5.03;;
65998;SDS011;52766;56.008;37.440;2022-09-13T02:00:45;8.82;;;5.00;;
65998;SDS011;52766;56.008;37.440;2022-09-13T02:03:30;11.65;;;5.57;;
65998;SDS011;52766;56.008;37.440;2022-09-13T02:06:01;9.57;;;5.57;;
65998;SDS011;52766;56.008;37.440;2022-09-13T02:11:11;9.63;;;5.32;;
65998;SDS011;52766;56.008;37.440;2022-09-13T02:13:40;8.43;;;4.80;;
65998;SDS011;52766;56.008;37.440;2022-09-13T02:16:14;11.85;;;5.78;;
65998;SDS011;52766;56.008;37.440;2022-09-13T02:18:44;9.15;;;4.95;;
65998;SDS011;52766;56.008;37.440;2022-09-13T02:21:20;12.38;;;5.85;;
65998;SDS011;52766;56.008;37.440;2022-09-13T02:23:50;10.63;;;5.72;;
65998;SDS011;52766;56.008;37.440;2022-09-13T02:26:19;10.60;;;5.20;;
65998;SDS011;52766;56.008;37.440;2022-09-13T02:28:47;9.93;;;5.13;;
65998;SDS011;52766;56.008;37.440;2022-09-13T02:31:18;11.05;;;5.13;;
65998;SDS011;52766;56.008;37.440;2022-09-13T02:34:02;10.23;;;5.30;;
65998;SDS011;52766;56.008;37.440;2022-09-13T02:36:32;10.45;;;6.25;;
65998;SDS011;52766;56.008;37.440;2022-09-13T02:39:02;12.48;;;6.65;;
65998;SDS011;52766;56.008;37.440;2022-09-13T02:43:58;14.30;;;7.43;;
65998;SDS011;52766;56.008;37.440;2022-09-13T02:49:22;15.90;;;8.73;;
65998;SDS011;52766;56.008;37.440;2022-09-13T02:57:18;14.20;;;7.72;;
65998;SDS011;52766;56.008;37.440;2022-09-13T03:00:05;12.63;;;7.53;;
65998;SDS011;52766;56.008;37.440;2022-09-13T03:02:32;14.40;;;7.65;;
65998;SDS011;52766;56.008;37.440;2022-09-13T03:05:02;13.27;;;7.68;;
65998;SDS011;52766;56.008;37.440;2022-09-13T03:07:35;13.60;;;7.68;;
65998;SDS011;52766;56.008;37.440;2022-09-13T03:10:04;15.10;;;7.85;;
65998;SDS011;52766;56.008;37.440;2022-09-13T03:29:51;12.10;;;6.72;;
65998;SDS011;52766;56.008;37.440;2022-09-13T03:35:23;16.00;;;7.30;;
65998;SDS011;52766;56.008;37.440;2022-09-13T03:41:13;9.70;;;5.68;;
65998;SDS011;52766;56.008;37.440;2022-09-13T03:43:59;13.07;;;6.15;;
65998;SDS011;52766;56.008;37.440;2022-09-13T03:46:34;10.05;;;6.00;;
65998;SDS011;52766;56.008;37.440;2022-09-13T03:49:31;13.30;;;5.97;;
65998;SDS011;52766;56.008;37.440;2022-09-13T03:52:05;9.77;;;5.93;;
65998;SDS011;52766;56.008;37.440;2022-09-13T03:54:37;11.15;;;5.78;;
65998;SDS011;52766;56.008;37.440;2022-09-13T03:57:24;11.23;;;5.93;;
65998;SDS011;52766;56.008;37.440;2022-09-13T03:59:54;12.90;;;5.85;;
65998;SDS011;52766;56.008;37.440;2022-09-13T04:02:24;9.82;;;5.13;;
65998;SDS011;52766;56.008;37.440;2022-09-13T04:04:54;11.20;;;5.20;;
65998;SDS011;52766;56.008;37.440;2022-09-13T04:07:22;9.90;;;5.75;;
65998;SDS011;52766;56.008;37.440;2022-09-13T04:09:49;10.05;;;5.22;;
65998;SDS011;52766;56.008;37.440;2022-09-13T04:12:29;9.10;;;5.43;;
65998;SDS011;52766;56.008;37.440;2022-09-13T04:14:57;10.43;;;5.80;;
65998;SDS011;52766;56.008;37.440;2022-09-13T04:17:23;9.30;;;5.22;;
65998;SDS011;52766;56.008;37.440;2022-09-13T04:19:51;10.63;;;5.63;;
65998;SDS011;52766;56.008;37.440;2022-09-13T04:22:18;11.93;;;6.25;;
65998;SDS011;52766;56.008;37.440;2022-09-13T04:24:44;12.77;;;5.80;;
65998;SDS011;52766;56.008;37.440;2022-09-13T04:27:12;11.38;;;5.93;;
65998;SDS011;52766;56.008;37.440;2022-09-13T04:29:40;12.30;;;6.50;;
65998;SDS011;52766;56.008;37.440;2022-09-13T04:32:10;10.75;;;5.90;;
65998;SDS011;52766;56.008;37.440;2022-09-13T04:34:43;11.18;;;6.70;;
65998;SDS011;52766;56.008;37.440;2022-09-13T04:37:15;13.27;;;6.30;;
65998;SDS011;52766;56.008;37.440;2022-09-13T04:39:41;12.20;;;6.47;;
65998;SDS011;52766;56.008;37.440;2022-09-13T04:42:13;15.30;;;8.02;;
65998;SDS011;52766;56.008;37.440;2022-09-13T04:44:39;9.93;;;6.78;;
65998;SDS011;52766;56.008;37.440;2022-09-13T04:47:07;11.32;;;6.10;;
65998;SDS011;52766;56.008;37.440;2022-09-13T04:49:37;11.77;;;7.00;;
65998;SDS011;52766;56.008;37.440;2022-09-13T04:52:09;13.18;;;7.35;;
65998;SDS011;52766;56.008;37.440;2022-09-13T04:54:42;11.52;;;6.82;;
65998;SDS011;52766;56.008;37.440;2022-09-13T04:57:09;14.45;;;6.57;;
65998;SDS011;52766;56.008;37.440;2022-09-13T04:59:36;11.32;;;6.57;;
65998;SDS011;52766;56.008;37.440;2022-09-13T05:02:04;13.25;;;7.10;;
65998;SDS011;52766;56.008;37.440;2022-09-13T05:04:33;11.23;;;6.63;;
65998;SDS011;52766;56.008;37.440;2022-09-13T05:07:03;12.25;;;6.43;;
65998;SDS011;52766;56.008;37.440;2022-09-13T05:09:32;11.20;;;5.97;;
65998;SDS011;52766;56.008;37.440;2022-09-13T05:11:58;14.70;;;6.70;;
65998;SDS011;52766;56.008;37.440;2022-09-13T05:14:25;11.70;;;6.78;;
65998;SDS011;52766;56.008;37.440;2022-09-13T05:16:53;11.20;;;6.28;;
65998;SDS011;52766;56.008;37.440;2022-09-13T05:19:28;11.48;;;6.55;;
65998;SDS011;52766;56.008;37.440;2022-09-13T05:21:55;12.90;;;7.55;;
65998;SDS011;52766;56.008;37.440;2022-09-13T05:24:25;12.13;;;6.15;;
65998;SDS011;52766;56.008;37.440;2022-09-13T05:26:52;14.20;;;7.80;;
65998;SDS011;52766;56.008;37.440;2022-09-13T05:29:23;14.25;;;6.65;;
65998;SDS011;52766;56.008;37.440;2022-09-13T05:31:49;12.63;;;8.02;;
65998;SDS011;52766;56.008;37.440;2022-09-13T05:34:18;15.60;;;8.63;;
65998;SDS011;52766;56.008;37.440;2022-09-13T05:36:49;14.40;;;7.75;;
65998;SDS011;52766;56.008;37.440;2022-09-13T05:39:16;11.82;;;7.28;;
65998;SDS011;52766;56.008;37.440;2022-09-13T05:41:45;14.52;;;8.07;;
65998;SDS011;52766;56.008;37.440;2022-09-13T05:44:11;14.35;;;7.35;;
65998;SDS011;52766;56.008;37.440;2022-09-13T05:46:37;13.02;;;8.25;;
65998;SDS011;52766;56.008;37.440;2022-09-13T05:49:03;14.20;;;7.38;;
65998;SDS011;52766;56.008;37.440;2022-09-13T05:51:30;13.68;;;7.45;;
65998;SDS011;52766;56.008;37.440;2022-09-13T05:53:56;13.70;;;7.30;;
65998;SDS011;52766;56.008;37.440;2022-09-13T05:56:26;13.57;;;7.60;;
65998;SDS011;52766;56.008;37.440;2022-09-13T05:58:54;12.23;;;7.00;;
65998;SDS011;52766;56.008;37.440;2022-09-13T06:01:21;10.38;;;6.20;;
65998;SDS011;52766;56.008;37.440;2022-09-13T06:03:56;11.88;;;6.85;;
65998;SDS011;52766;56.008;37.440;2022-09-13T06:06:28;11.48;;;6.28;;
65998;SDS011;52766;56.008;37.440;2022-09-13T06:08:54;11.23;;;6.53;;
65998;SDS011;52766;56.008;37.440;2022-09-13T06:11:22;11.32;;;6.35;;
65998;SDS011;52766;56.008;37.440;2022-09-13T06:13:49;8.95;;;5.97;;
65998;SDS011;52766;56.008;37.440;2022-09-13T06:16:15;14.50;;;6.68;;
65998;SDS011;52766;56.008;37.440;2022-09-13T06:18:41;9.10;;;5.75;;
65998;SDS011;52766;56.008;37.440;2022-09-13T06:21:09;11.00;;;6.03;;
65998;SDS011;52766;56.008;37.440;2022-09-13T06:23:38;11.52;;;5.85;;
65998;SDS011;52766;56.008;37.440;2022-09-13T06:26:05;9.25;;;5.85;;
65998;SDS011;52766;56.008;37.440;2022-09-13T06:28:33;9.52;;;5.60;;
65998;SDS011;52766;56.008;37.440;2022-09-13T06:31:04;9.77;;;5.47;;
65998;SDS011;52766;56.008;37.440;2022-09-13T06:33:31;11.57;;;6.03;;
65998;SDS011;52766;56.008;37.440;2022-09-13T06:36:11;9.30;;;5.47;;
65998;SDS011;52766;56.008;37.440;2022-09-13T06:38:46;9.80;;;5.15;;
65998;SDS011;52766;56.008;37.440;2022-09-13T06:41:16;8.52;;;5.25;;
65998;SDS011;52766;56.008;37.440;2022-09-13T06:43:47;9.02;;;5.00;;
65998;SDS011;52766;56.008;37.440;2022-09-13T06:46:17;10.40;;;5.30;;
65998;SDS011;52766;56.008;37.440;2022-09-13T06:48:47;8.25;;;5.10;;
65998;SDS011;52766;56.008;37.440;2022-09-13T06:51:23;16.55;;;9.43;;
65998;SDS011;52766;56.008;37.440;2022-09-13T06:53:54;15.48;;;8.70;;
65998;SDS011;52766;56.008;37.440;2022-09-13T06:56:26;21.20;;;12.32;;
65998;SDS011;52766;56.008;37.440;2022-09-13T06:58:55;38.08;;;19.67;;
65998;SDS011;52766;56.008;37.440;2022-09-13T07:01:24;17.05;;;9.77;;
65998;SDS011;52766;56.008;37.440;2022-09-13T07:03:58;9.10;;;5.65;;
65998;SDS011;52766;56.008;37.440;2022-09-13T07:06:27;11.80;;;6.85;;
65998;SDS011;52766;56.008;37.440;2022-09-13T07:08:58;11.52;;;5.40;;
65998;SDS011;52766;56.008;37.440;2022-09-13T07:11:30;8.10;;;4.18;;
65998;SDS011;52766;56.008;37.440;2022-09-13T07:14:03;11.35;;;5.82;;
65998;SDS011;52766;56.008;37.440;2022-09-13T07:16:46;9.75;;;4.80;;
65998;SDS011;52766;56.008;37.440;2022-09-13T07:19:14;8.15;;;4.47;;
65998;SDS011;52766;56.008;37.440;2022-09-13T07:21:45;8.50;;;4.90;;
65998;SDS011;52766;56.008;37.440;2022-09-13T07:24:13;12.10;;;5.97;;
65998;SDS011;52766;56.008;37.440;2022-09-13T07:26:39;24.65;;;11.25;;
65998;SDS011;52766;56.008;37.440;2022-09-13T07:29:06;11.75;;;6.35;;
65998;SDS011;52766;56.008;37.440;2022-09-13T07:31:43;7.68;;;4.65;;
65998;SDS011;52766;56.008;37.440;2022-09-13T07:34:23;8.98;;;4.57;;
65998;SDS011;52766;56.008;37.440;2022-09-13T07:36:50;9.90;;;5.30;;
65998;SDS011;52766;56.008;37.440;2022-09-13T07:39:17;11.55;;;4.47;;
65998;SDS011;52766;56.008;37.440;2022-09-13T07:41:44;8.90;;;5.10;;
65998;SDS011;52766;56.008;37.440;2022-09-13T07:44:22;8.55;;;5.40;;
65998;SDS011;52766;56.008;37.440;2022-09-13T07:46:48;18.00;;;7.53;;
65998;SDS011;52766;56.008;37.440;2022-09-13T07:49:17;9.82;;;5.40;;
65998;SDS011;52766;56.008;37.440;2022-09-13T07:51:49;7.47;;;4.10;;
65998;SDS011;52766;56.008;37.440;2022-09-13T07:54:16;7.60;;;3.95;;
65998;SDS011;52766;56.008;37.440;2022-09-13T07:56:43;7.55;;;3.35;;
65998;SDS011;52766;56.008;37.440;2022-09-13T07:59:10;7.47;;;4.15;;
65998;SDS011;52766;56.008;37.440;2022-09-13T08:01:46;9.55;;;3.80;;
65998;SDS011;52766;56.008;37.440;2022-09-13T08:04:22;8.20;;;3.85;;
65998;SDS011;52766;56.008;37.440;2022-09-13T08:06:52;7.65;;;3.47;;
65998;SDS011;52766;56.008;37.440;2022-09-13T08:09:21;10.60;;;5.18;;
65998;SDS011;52766;56.008;37.440;2022-09-13T08:11:57;8.70;;;4.53;;
65998;SDS011;52766;56.008;37.440;2022-09-13T08:14:23;6.88;;;3.72;;
65998;SDS011;52766;56.008;37.440;2022-09-13T08:16:49;10.57;;;5.13;;
65998;SDS011;52766;56.008;37.440;2022-09-13T08:19:29;10.65;;;2.67;;
65998;SDS011;52766;56.008;37.440;2022-09-13T08:21:56;6.13;;;2.80;;
65998;SDS011;52766;56.008;37.440;2022-09-13T08:24:22;6.28;;;3.25;;
65998;SDS011;52766;56.008;37.440;2022-09-13T08:26:48;6.55;;;3.38;;
65998;SDS011;52766;56.008;37.440;2022-09-13T08:29:17;4.57;;;2.70;;
65998;SDS011;52766;56.008;37.440;2022-09-13T08:31:44;4.82;;;2.40;;
65998;SDS011;52766;56.008;37.440;2022-09-13T08:34:14;5.82;;;2.92;;
65998;SDS011;52766;56.008;37.440;2022-09-13T08:36:44;7.07;;;2.83;;
65998;SDS011;52766;56.008;37.440;2022-09-13T08:39:11;6.57;;;3.05;;
65998;SDS011;52766;56.008;37.440;2022-09-13T08:44:33;6.90;;;2.72;;
65998;SDS011;52766;56.008;37.440;2022-09-13T08:51:01;5.88;;;2.25;;
65998;SDS011;52766;56.008;37.440;2022-09-13T08:53:40;4.55;;;2.63;;
65998;SDS011;52766;56.008;37.440;2022-09-13T08:56:31;4.47;;;2.15;;
65998;SDS011;52766;56.008;37.440;2022-09-13T09:02:07;7.28;;;2.67;;
65998;SDS011;52766;56.008;37.440;2022-09-13T09:05:00;5.43;;;2.85;;
65998;SDS011;52766;56.008;37.440;2022-09-13T09:07:39;5.07;;;2.70;;
65998;SDS011;52766;56.008;37.440;2022-09-13T09:10:13;6.00;;;3.25;;
65998;SDS011;52766;56.008;37.440;2022-09-13T09:13:31;5.65;;;3.10;;
65998;SDS011;52766;56.008;37.440;2022-09-13T09:15:52;8.93;;;4.63;;
65998;SDS011;52766;56.008;37.440;2022-09-13T09:18:23;9.05;;;3.50;;
65998;SDS011;52766;56.008;37.440;2022-09-13T09:20:52;8.68;;;4.50;;
65998;SDS011;52766;56.008;37.440;2022-09-13T09:23:25;6.20;;;3.35;;
65998;SDS011;52766;56.008;37.440;2022-09-13T09:25:55;6.05;;;3.42;;
65998;SDS011;52766;56.008;37.440;2022-09-13T09:28:23;4.80;;;2.55;;
65998;SDS011;52766;56.008;37.440;2022-09-13T09:38:59;6.57;;;3.63;;
65998;SDS011;52766;56.008;37.440;2022-09-13T09:41:35;9.70;;;3.38;;
65998;SDS011;52766;56.008;37.440;2022-09-13T09:44:19;8.88;;;4.88;;
65998;SDS011;52766;56.008;37.440;2022-09-13T09:46:49;10.52;;;5.20;;
65998;SDS011;52766;56.008;37.440;2022-09-13T09:49:29;13.02;;;4.10;;
65998;SDS011;52766;56.008;37.440;2022-09-13T09:52:16;6.05;;;3.05;;
65998;SDS011;52766;56.008;37.440;2022-09-13T09:54:48;5.47;;;3.13;;
65998;SDS011;52766;56.008;37.440;2022-09-13T09:57:14;5.60;;;2.90;;
65998;SDS011;52766;56.008;37.440;2022-09-13T09:59:43;5.40;;;3.05;;
65998;SDS011;52766;56.008;37.440;2022-09-13T10:02:14;4.10;;;2.45;;
65998;SDS011;52766;56.008;37.440;2022-09-13T10:07:25;6.40;;;2.70;;
65998;SDS011;52766;56.008;37.440;2022-09-13T10:09:57;6.43;;;2.75;;
65998;SDS011;52766;56.008;37.440;2022-09-13T10:12:36;5.57;;;2.90;;
65998;SDS011;52766;56.008;37.440;2022-09-13T10:15:05;6.30;;;3.03;;
65998;SDS011;52766;56.008;37.440;2022-09-13T10:17:42;6.95;;;2.95;;
65998;SDS011;52766;56.008;37.440;2022-09-13T10:22:38;4.63;;;2.55;;
65998;SDS011;52766;56.008;37.440;2022-09-13T10:25:16;3.75;;;2.63;;
65998;SDS011;52766;56.008;37.440;2022-09-13T10:27:51;6.20;;;3.47;;
65998;SDS011;52766;56.008;37.440;2022-09-13T10:33:00;4.07;;;2.35;;
65998;SDS011;52766;56.008;37.440;2022-09-13T10:35:27;6.90;;;3.08;;
65998;SDS011;52766;56.008;37.440;2022-09-13T10:37:54;6.90;;;2.78;;
65998;SDS011;52766;56.008;37.440;2022-09-13T10:40:28;5.90;;;2.33;;
65998;SDS011;52766;56.008;37.440;2022-09-13T10:42:56;6.00;;;2.30;;
65998;SDS011;52766;56.008;37.440;2022-09-13T10:45:26;5.05;;;2.38;;
65998;SDS011;52766;56.008;37.440;2022-09-13T10:47:54;4.95;;;3.10;;
65998;SDS011;52766;56.008;37.440;2022-09-13T10:50:30;6.60;;;2.60;;
65998;SDS011;52766;56.008;37.440;2022-09-13T10:52:58;5.28;;;2.83;;
65998;SDS011;52766;56.008;37.440;2022-09-13T10:55:27;8.38;;;3.40;;
65998;SDS011;52766;56.008;37.440;2022-09-13T11:06:47;7.50;;;3.83;;
65998;SDS011;52766;56.008;37.440;2022-09-13T11:12:18;4.97;;;2.83;;
65998;SDS011;52766;56.008;37.440;2022-09-13T11:20:28;5.35;;;2.90;;
65998;SDS011;52766;56.008;37.440;2022-09-13T11:30:47;11.50;;;5.45;;
65998;SDS011;52766;56.008;37.440;2022-09-13T11:33:22;5.18;;;3.08;;
65998;SDS011;52766;56.008;37.440;2022-09-13T11:42:20;3.97;;;2.38;;
65998;SDS011;52766;56.008;37.440;2022-09-13T11:45:16;5.55;;;2.55;;
65998;SDS011;52766;56.008;37.440;2022-09-13T11:56:10;5.50;;;2.50;;
65998;SDS011;52766;56.008;37.440;2022-09-13T11:58:53;8.55;;;3.78;;
65998;SDS011;52766;56.008;37.440;2022-09-13T12:01:28;9.25;;;4.50;;
65998;SDS011;52766;56.008;37.440;2022-09-13T12:04:02;6.40;;;3.97;;
65998;SDS011;52766;56.008;37.440;2022-09-13T12:06:40;6.35;;;3.28;;
65998;SDS011;52766;56.008;37.440;2022-09-13T12:14:25;7.80;;;3.33;;
65998;SDS011;52766;56.008;37.440;2022-09-13T12:16:56;8.35;;;2.97;;
65998;SDS011;52766;56.008;37.440;2022-09-13T12:19:26;11.30;;;3.08;;
65998;SDS011;52766;56.008;37.440;2022-09-13T12:21:55;8.40;;;3.42;;
65998;SDS011;52766;56.008;37.440;2022-09-13T12:24:42;8.73;;;3.38;;
65998;SDS011;52766;56.008;37.440;2022-09-13T12:29:49;7.38;;;3.38;;
65998;SDS011;52766;56.008;37.440;2022-09-13T12:32:17;4.78;;;2.72;;
65998;SDS011;52766;56.008;37.440;2022-09-13T12:34:49;5.45;;;2.88;;
65998;SDS011;52766;56.008;37.440;2022-09-13T12:46:04;6.88;;;2.95;;
65998;SDS011;52766;56.008;37.440;2022-09-13T13:02:44;5.93;;;2.67;;
65998;SDS011;52766;56.008;37.440;2022-09-13T13:05:34;4.80;;;2.50;;
65998;SDS011;52766;56.008;37.440;2022-09-13T13:08:24;10.82;;;3.17;;
65998;SDS011;52766;56.008;37.440;2022-09-13T13:13:45;5.68;;;2.80;;
65998;SDS011;52766;56.008;37.440;2022-09-13T13:26:55;5.63;;;3.03;;
65998;SDS011;52766;56.008;37.440;2022-09-13T13:29:25;3.88;;;2.38;;
65998;SDS011;52766;56.008;37.440;2022-09-13T13:34:36;6.72;;;2.20;;
65998;SDS011;52766;56.008;37.440;2022-09-13T13:40:10;7.93;;;2.35;;
65998;SDS011;52766;56.008;37.440;2022-09-13T13:42:50;7.00;;;2.17;;
65998;SDS011;52766;56.008;37.440;2022-09-13T13:45:56;7.65;;;2.42;;
65998;SDS011;52766;56.008;37.440;2022-09-13T13:48:42;4.22;;;1.80;;
65998;SDS011;52766;56.008;37.440;2022-09-13T13:53:37;6.13;;;2.00;;
65998;SDS011;52766;56.008;37.440;2022-09-13T13:56:19;3.47;;;1.73;;
65998;SDS011;52766;56.008;37.440;2022-09-13T13:59:07;3.58;;;1.70;;
65998;SDS011;52766;56.008;37.440;2022-09-13T14:01:59;4.70;;;1.95;;
65998;SDS011;52766;56.008;37.440;2022-09-13T14:04:37;5.45;;;2.30;;
65998;SDS011;52766;56.008;37.440;2022-09-13T14:16:02;7.45;;;2.22;;
65998;SDS011;52766;56.008;37.440;2022-09-13T14:21:28;5.65;;;2.20;;
65998;SDS011;52766;56.008;37.440;2022-09-13T14:24:18;6.38;;;2.08;;
65998;SDS011;52766;56.008;37.440;2022-09-13T14:26:50;4.50;;;2.15;;
65998;SDS011;52766;56.008;37.440;2022-09-13T14:32:28;6.45;;;2.10;;
65998;SDS011;52766;56.008;37.440;2022-09-13T14:35:37;7.80;;;2.17;;
65998;SDS011;52766;56.008;37.440;2022-09-13T14:38:12;3.70;;;1.88;;
65998;SDS011;52766;56.008;37.440;2022-09-13T14:40:49;4.28;;;2.13;;
65998;SDS011;52766;56.008;37.440;2022-09-13T14:43:42;3.28;;;1.80;;
65998;SDS011;52766;56.008;37.440;2022-09-13T14:48:58;6.32;;;2.55;;
65998;SDS011;52766;56.008;37.440;2022-09-13T14:51:48;4.95;;;2.75;;
65998;SDS011;52766;56.008;37.440;2022-09-13T14:54:30;6.60;;;3.17;;
65998;SDS011;52766;56.008;37.440;2022-09-13T14:57:26;4.72;;;2.60;;
65998;SDS011;52766;56.008;37.440;2022-09-13T15:00:20;6.72;;;2.85;;
65998;SDS011;52766;56.008;37.440;2022-09-13T15:03:03;9.73;;;3.25;;
65998;SDS011;52766;56.008;37.440;2022-09-13T15:05:48;7.65;;;3.55;;
65998;SDS011;52766;56.008;37.440;2022-09-13T15:11:13;4.75;;;2.50;;
65998;SDS011;52766;56.008;37.440;2022-09-13T15:14:47;4.78;;;2.50;;
65998;SDS011;52766;56.008;37.440;2022-09-13T15:17:26;9.70;;;4.95;;
65998;SDS011;52766;56.008;37.440;2022-09-13T15:22:52;7.68;;;2.88;;
65998;SDS011;52766;56.008;37.440;2022-09-13T15:28:33;6.75;;;4.00;;
65998;SDS011;52766;56.008;37.440;2022-09-13T15:31:31;9.98;;;4.60;;
65998;SDS011;52766;56.008;37.440;2022-09-13T15:37:13;9.27;;;3.08;;
65998;SDS011;52766;56.008;37.440;2022-09-13T15:39:44;5.07;;;2.95;;
65998;SDS011;52766;56.008;37.440;2022-09-13T15:42:17;3.38;;;2.08;;
65998;SDS011;52766;56.008;37.440;2022-09-13T15:44:55;8.57;;;2.80;;
65998;SDS011;52766;56.008;37.440;2022-09-13T15:47:25;7.95;;;2.67;;
65998;SDS011;52766;56.008;37.440;2022-09-13T15:49:52;9.73;;;2.85;;
65998;SDS011;52766;56.008;37.440;2022-09-13T15:52:19;7.43;;;3.40;;
65998;SDS011;52766;56.008;37.440;2022-09-13T15:54:48;6.65;;;2.58;;
65998;SDS011;52766;56.008;37.440;2022-09-13T15:57:21;5.78;;;2.83;;
65998;SDS011;52766;56.008;37.440;2022-09-13T16:00:27;4.65;;;2.58;;
65998;SDS011;52766;56.008;37.440;2022-09-13T16:02:54;4.15;;;2.53;;
65998;SDS011;52766;56.008;37.440;2022-09-13T16:05:21;8.98;;;2.97;;
65998;SDS011;52766;56.008;37.440;2022-09-13T16:07:52;4.97;;;2.67;;
65998;SDS011;52766;56.008;37.440;2022-09-13T16:10:23;5.20;;;2.97;;
65998;SDS011;52766;56.008;37.440;2022-09-13T16:15:50;10.20;;;3.42;;
65998;SDS011;52766;56.008;37.440;2022-09-13T16:18:19;16.08;;;9.20;;
65998;SDS011;52766;56.008;37.440;2022-09-13T16:20:46;7.00;;;3.65;;
65998;SDS011;52766;56.008;37.440;2022-09-13T16:23:12;7.72;;;4.10;;
65998;SDS011;52766;56.008;37.440;2022-09-13T16:25:39;9.10;;;4.72;;
65998;SDS011;52766;56.008;37.440;2022-09-13T16:28:06;6.22;;;3.10;;
65998;SDS011;52766;56.008;37.440;2022-09-13T16:30:33;7.03;;;3.53;;
65998;SDS011;52766;56.008;37.440;2022-09-13T16:32:59;7.40;;;3.30;;
65998;SDS011;52766;56.008;37.440;2022-09-13T16:35:27;10.40;;;3.53;;
65998;SDS011;52766;56.008;37.440;2022-09-13T16:37:55;7.43;;;3.03;;
65998;SDS011;52766;56.008;37.440;2022-09-13T16:40:21;7.55;;;3.15;;
65998;SDS011;52766;56.008;37.440;2022-09-13T16:42:51;7.68;;;3.33;;
65998;SDS011;52766;56.008;37.440;2022-09-13T16:45:19;7.15;;;3.72;;
65998;SDS011;52766;56.008;37.440;2022-09-13T16:47:45;7.78;;;3.28;;
65998;SDS011;52766;56.008;37.440;2022-09-13T16:50:12;4.78;;;2.90;;
65998;SDS011;52766;56.008;37.440;2022-09-13T16:52:39;8.93;;;2.97;;
65998;SDS011;52766;56.008;37.440;2022-09-13T16:55:11;6.05;;;2.67;;
65998;SDS011;52766;56.008;37.440;2022-09-13T16:57:38;7.15;;;2.75;;
65998;SDS011;52766;56.008;37.440;2022-09-13T17:03:27;9.18;;;4.38;;
65998;SDS011;52766;56.008;37.440;2022-09-13T17:10:46;5.75;;;2.58;;
65998;SDS011;52766;56.008;37.440;2022-09-13T17:13:32;4.45;;;2.55;;
65998;SDS011;52766;56.008;37.440;2022-09-13T17:15:58;6.18;;;3.17;;
65998;SDS011;52766;56.008;37.440;2022-09-13T17:18:33;7.28;;;3.88;;
65998;SDS011;52766;56.008;37.440;2022-09-13T17:21:04;10.57;;;5.90;;
65998;SDS011;52766;56.008;37.440;2022-09-13T17:23:38;15.90;;;6.15;;
65998;SDS011;52766;56.008;37.440;2022-09-13T17:26:05;8.27;;;3.28;;
65998;SDS011;52766;56.008;37.440;2022-09-13T17:28:32;5.75;;;2.92;;
65998;SDS011;52766;56.008;37.440;2022-09-13T17:31:04;6.35;;;3.28;;
65998;SDS011;52766;56.008;37.440;2022-09-13T17:33:31;7.22;;;3.67;;
65998;SDS011;52766;56.008;37.440;2022-09-13T17:35:58;5.90;;;3.38;;
65998;SDS011;52766;56.008;37.440;2022-09-13T17:38:29;6.20;;;2.90;;
65998;SDS011;52766;56.008;37.440;2022-09-13T17:41:01;6.63;;;3.30;;
65998;SDS011;52766;56.008;37.440;2022-09-13T17:43:34;7.93;;;3.50;;
65998;SDS011;52766;56.008;37.440;2022-09-13T17:46:05;10.98;;;3.22;;
65998;SDS011;52766;56.008;37.440;2022-09-13T17:48:35;5.72;;;3.10;;
65998;SDS011;52766;56.008;37.440;2022-09-13T17:51:04;6.18;;;3.00;;
65998;SDS011;52766;56.008;37.440;2022-09-13T17:53:44;6.50;;;3.60;;
65998;SDS011;52766;56.008;37.440;2022-09-13T17:56:31;9.68;;;3.75;;
65998;SDS011;52766;56.008;37.440;2022-09-13T17:59:06;7.70;;;3.17;;
65998;SDS011;52766;56.008;37.440;2022-09-13T18:06:05;4.55;;;2.67;;
65998;SDS011;52766;56.008;37.440;2022-09-13T18:08:55;7.10;;;2.90;;
65998;SDS011;52766;56.008;37.440;2022-09-13T18:12:07;7.55;;;3.35;;
65998;SDS011;52766;56.008;37.440;2022-09-13T18:15:04;8.65;;;3.20;;
65998;SDS011;52766;56.008;37.440;2022-09-13T18:17:53;6.93;;;3.65;;
65998;SDS011;52766;56.008;37.440;2022-09-13T18:20:34;19.02;;;10.93;;
65998;SDS011;52766;56.008;37.440;2022-09-13T18:23:34;7.90;;;4.53;;
65998;SDS011;52766;56.008;37.440;2022-09-13T18:26:15;6.60;;;2.80;;
65998;SDS011;52766;56.008;37.440;2022-09-13T18:28:45;5.50;;;3.28;;
65998;SDS011;52766;56.008;37.440;2022-09-13T18:31:23;7.10;;;3.22;;
65998;SDS011;52766;56.008;37.440;2022-09-13T18:33:59;6.60;;;3.40;;
65998;SDS011;52766;56.008;37.440;2022-09-13T18:36:33;7.63;;;4.03;;
65998;SDS011;52766;56.008;37.440;2022-09-13T18:43:00;5.90;;;4.00;;
65998;SDS011;52766;56.008;37.440;2022-09-13T18:48:09;6.40;;;3.38;;
65998;SDS011;52766;56.008;37.440;2022-09-13T18:50:40;5.72;;;3.30;;
65998;SDS011;52766;56.008;37.440;2022-09-13T18:53:21;6.82;;;3.70;;
65998;SDS011;52766;56.008;37.440;2022-09-13T18:55:54;5.75;;;2.95;;
65998;SDS011;52766;56.008;37.440;2022-09-13T18:58:28;7.20;;;3.92;;
65998;SDS011;52766;56.008;37.440;2022-09-13T19:01:07;7.63;;;4.47;;
65998;SDS011;52766;56.008;37.440;2022-09-13T19:04:11;12.73;;;4.18;;
65998;SDS011;52766;56.008;37.440;2022-09-13T19:06:43;6.85;;;3.83;;